Time;durP1;ratioP1;P1;durP2;ratioP2;P2;SDS_P1;SDS_P2;PMS_P1;PMS_P2;Temp;Humidity;BMP_temperature;BMP_pressure;BME280_temperature;BME280_humidity;BME280_pressure;Samples;Min_cycle;Max_cycle;Signal;HPM_P1;HPM_P2
2023/05/05 00:01:26;;;;;;;10.95;7.68;;;;;;;15.06;100.00;151775.75;5017642;28;20060;-85
2023/05/05 00:03:51;;;;;;;9.88;7.47;;;;;;;14.89;100.00;151735.63;5017365;28;20655;-87
2023/05/05 00:06:17;;;;;;;10.20;7.65;;;;;;;14.89;100.00;151735.63;5016839;28;20105;-87
2023/05/05 00:08:42;;;;;;;11.93;7.97;;;;;;;15.01;100.00;151764.50;5017195;28;20038;-86
2023/05/05 00:11:08;;;;;;;10.93;7.30;;;;;;;15.29;100.00;151833.41;5021804;28;20510;-86
2023/05/05 00:13:34;;;;;;;14.02;7.85;;;;;;;15.49;100.00;151883.63;5024304;28;20093;-85
2023/05/05 00:16:00;;;;;;;8.95;7.05;;;;;;;15.58;100.00;151904.97;5039043;28;20093;-87
2023/05/05 00:18:25;;;;;;;9.75;7.30;;;;;;;15.49;100.00;151883.63;5039676;28;20018;-86
2023/05/05 00:20:51;;;;;;;10.93;7.47;;;;;;;14.98;100.00;151758.19;5036112;28;20104;-85
2023/05/05 00:23:19;;;;;;;11.95;7.10;;;;;;;14.83;100.00;151720.59;5021965;28;20049;-84
2023/05/05 00:25:44;;;;;;;11.38;7.38;;;;;;;14.57;100.00;151655.44;4999570;28;20099;-86
2023/05/05 00:28:10;;;;;;;14.60;7.93;;;;;;;14.52;100.00;151641.66;5016760;28;20046;-83
2023/05/05 00:30:36;;;;;;;12.13;7.78;;;;;;;14.43;100.00;151620.31;5016218;28;20030;-85
2023/05/05 00:33:02;;;;;;;12.80;8.10;;;;;;;14.46;100.00;151629.09;5015903;28;20127;-85
2023/05/05 00:35:27;;;;;;;13.13;8.05;;;;;;;14.44;100.00;151622.84;5015347;28;20062;-86
2023/05/05 00:37:54;;;;;;;13.38;8.13;;;;;;;14.43;100.00;151621.59;5014410;28;20336;-85
2023/05/05 00:40:25;;;;;;;15.68;8.48;;;;;;;14.47;100.00;151631.63;5017230;28;20042;-84
2023/05/05 00:42:52;;;;;;;11.45;8.02;;;;;;;14.57;100.00;151655.44;5017053;28;20100;-83
2023/05/05 00:45:18;;;;;;;11.48;7.80;;;;;;;14.54;100.00;151646.66;5015287;28;20018;-83
2023/05/05 00:47:47;;;;;;;9.77;7.03;;;;;;;14.77;100.00;151705.56;5014901;28;20565;-85
2023/05/05 00:50:25;;;;;;;8.20;6.60;;;;;;;14.73;100.00;151694.28;5014222;28;20503;-85
2023/05/05 00:52:54;;;;;;;13.90;7.63;;;;;;;14.73;100.00;151695.53;5014192;28;20487;-84
2023/05/05 00:55:21;;;;;;;10.30;7.25;;;;;;;14.63;100.00;151669.19;5013836;28;20033;-84
2023/05/05 00:57:48;;;;;;;18.13;6.82;;;;;;;14.88;100.00;151731.91;5016101;28;20092;-84
2023/05/05 01:00:13;;;;;;;9.13;6.20;;;;;;;14.85;100.00;151725.59;5016554;28;20037;-87
2023/05/05 01:02:40;;;;;;;13.18;7.13;;;;;;;14.59;100.00;151660.41;5015156;28;20120;-85
2023/05/05 01:05:08;;;;;;;10.52;6.40;;;;;;;14.44;100.00;151622.84;5015885;28;20030;-86
2023/05/05 01:07:44;;;;;;;15.05;6.43;;;;;;;14.71;100.00;151690.53;5014095;28;20049;-84
2023/05/05 01:10:47;;;;;;;8.88;6.25;;;;;;;14.80;100.00;151711.81;5014519;28;20471;-85
2023/05/05 01:13:44;;;;;;;8.60;6.20;;;;;;;14.82;100.00;151718.06;5013513;28;20042;-84
2023/05/05 01:16:13;;;;;;;7.90;6.10;;;;;;;14.89;100.00;151735.63;5013328;28;20034;-84
2023/05/05 01:19:26;;;;;;;9.10;5.72;;;;;;;15.00;100.00;151763.22;5013662;28;20128;-85
2023/05/05 01:21:59;;;;;;;9.50;5.80;;;;;;;15.08;100.00;151780.78;5004133;28;20103;-84
2023/05/05 01:24:42;;;;;;;12.02;5.80;;;;;;;15.14;100.00;151795.81;5015195;28;20487;-85
2023/05/05 01:27:33;;;;;;;10.63;6.43;;;;;;;15.10;100.00;151785.78;5014873;28;20475;-84
2023/05/05 01:30:09;;;;;;;8.55;6.22;;;;;;;14.88;100.00;151733.09;5014495;28;20038;-85
2023/05/05 01:32:40;;;;;;;10.38;6.53;;;;;;;14.70;100.00;151688.00;5014402;28;20537;-85
2023/05/05 01:35:18;;;;;;;8.07;6.22;;;;;;;14.41;100.00;151615.34;5012998;28;20029;-84
2023/05/05 01:38:08;;;;;;;11.00;6.43;;;;;;;14.25;100.00;151575.19;5013907;28;20044;-85
2023/05/05 01:40:47;;;;;;;7.90;6.05;;;;;;;14.39;100.00;151610.28;5016266;28;20034;-86
2023/05/05 01:43:26;;;;;;;14.55;6.90;;;;;;;14.25;100.00;151575.19;5013737;28;20479;-84
2023/05/05 01:45:54;;;;;;;11.27;6.40;;;;;;;14.04;100.00;151522.56;5015346;28;20033;-86
2023/05/05 01:48:22;;;;;;;9.20;6.03;;;;;;;14.30;100.00;151587.69;5013286;28;20483;-87
2023/05/05 01:50:51;;;;;;;9.43;5.47;;;;;;;14.50;100.00;151637.88;5014781;28;20034;-85
2023/05/05 01:53:18;;;;;;;7.28;5.32;;;;;;;14.49;100.00;151636.63;5015090;28;20084;-86
2023/05/05 01:55:45;;;;;;;9.30;5.85;;;;;;;14.48;100.00;151634.09;5013158;28;20030;-85
2023/05/05 01:58:13;;;;;;;8.20;6.07;;;;;;;14.49;100.00;151636.63;4997029;28;20399;-84
2023/05/05 02:00:40;;;;;;;10.57;6.35;;;;;;;14.50;100.00;151637.88;5013677;28;20432;-83
2023/05/05 02:03:10;;;;;;;10.50;5.70;;;;;;;14.43;100.00;151621.59;5000640;28;20019;-83
2023/05/05 02:05:39;;;;;;;12.85;6.40;;;;;;;14.42;100.00;151619.06;4998266;28;20034;-86
2023/05/05 02:08:05;;;;;;;9.55;5.65;;;;;;;14.45;100.00;151625.31;5012281;28;20091;-84
2023/05/05 02:10:31;;;;;;;9.95;6.25;;;;;;;14.28;100.00;151582.69;5013788;28;20041;-85
2023/05/05 02:13:04;;;;;;;11.68;5.93;;;;;;;14.36;100.00;151602.78;5012536;28;20157;-84
2023/05/05 02:15:30;;;;;;;;;;;;;;;14.25;100.00;151575.19;5012861;28;20034;-85
2023/05/05 02:17:58;;;;;;;9.55;5.90;;;;;;;14.27;100.00;151581.44;5012430;28;19917;-84
2023/05/05 02:20:26;;;;;;;12.23;5.60;;;;;;;14.05;100.00;151526.34;5013711;28;20049;-85
2023/05/05 02:22:53;;;;;;;7.35;5.95;;;;;;;13.87;100.00;151482.47;5012144;28;20026;-85
2023/05/05 02:25:18;;;;;;;11.10;5.90;;;;;;;13.75;100.00;151452.44;5013863;28;20037;-85
2023/05/05 02:27:46;;;;;;;10.07;6.40;;;;;;;13.63;100.00;151421.06;5013437;28;20438;-84
2023/05/05 02:30:14;;;;;;;14.88;6.00;;;;;;;13.84;100.00;151474.97;5013143;28;20038;-85
2023/05/05 02:43:53;;;;;;;9.90;6.38;;;;;;;13.63;100.00;151422.34;5084450;23;20117;-85
2023/05/05 02:46:20;;;;;;;11.70;6.30;;;;;;;13.65;100.00;151426.13;5019012;28;20026;-85
2023/05/05 02:48:46;;;;;;;9.57;6.53;;;;;;;13.77;100.00;151457.41;5026930;28;20592;-84
2023/05/05 02:51:12;;;;;;;14.43;6.57;;;;;;;13.95;100.00;151501.28;5016793;28;20116;-83
2023/05/05 02:53:38;;;;;;;12.10;6.90;;;;;;;13.84;100.00;151474.97;5014511;28;20054;-86
2023/05/05 02:56:14;;;;;;;8.40;6.00;;;;;;;13.83;100.00;151471.19;5013230;28;20038;-83
2023/05/05 02:58:59;;;;;;;6.90;5.00;;;;;;;13.95;100.00;151502.50;5012996;28;20395;-86
2023/05/05 03:01:49;;;;;;;7.80;6.40;;;;;;;14.06;100.00;151527.53;5017491;28;20045;-84
2023/05/05 03:04:27;;;;;;;9.65;7.05;;;;;;;13.89;100.00;151487.47;5019424;28;20060;-86
2023/05/05 03:06:58;;;;;;;15.48;6.45;;;;;;;13.98;100.00;151510.03;5029838;28;20029;-86
2023/05/05 03:14:44;;;;;;;9.03;6.20;;;;;;;14.02;100.00;151518.78;5079277;23;20057;-85
2023/05/05 03:17:16;;;;;;;10.07;6.35;;;;;;;13.62;100.00;151418.59;5017985;28;20502;-84
2023/05/05 03:19:43;;;;;;;11.30;6.72;;;;;;;13.72;100.00;151444.88;5016386;28;20033;-87
2023/05/05 03:22:09;;;;;;;10.85;5.90;;;;;;;13.74;100.00;151449.91;5015733;28;20042;-85
2023/05/05 03:24:38;;;;;;;11.73;6.20;;;;;;;13.86;100.00;151479.94;5015634;28;20498;-86
2023/05/05 03:27:07;;;;;;;12.93;6.53;;;;;;;13.58;100.00;151409.84;5015381;28;20464;-85
2023/05/05 03:29:36;;;;;;;10.27;5.75;;;;;;;13.71;100.00;151441.13;5016387;28;20088;-86
2023/05/05 03:32:03;;;;;;;11.23;6.50;;;;;;;13.51;100.00;151392.28;5018353;28;20059;-85
2023/05/05 03:34:29;;;;;;;8.40;6.40;;;;;;;13.59;100.00;151412.31;5017309;28;20038;-88
2023/05/05 03:36:56;;;;;;;8.40;6.32;;;;;;;13.62;100.00;151419.81;5016614;28;20506;-85
2023/05/05 03:39:22;;;;;;;17.23;7.18;;;;;;;13.62;100.00;151419.81;5015174;28;20061;-84
2023/05/05 03:41:49;;;;;;;13.52;6.05;;;;;;;13.72;100.00;151444.88;5015866;28;20057;-85
2023/05/05 03:44:17;;;;;;;9.10;6.72;;;;;;;13.57;100.00;151407.31;5015411;28;20120;-85
2023/05/05 03:46:42;;;;;;;10.20;6.78;;;;;;;13.58;100.00;151409.84;5016643;28;20117;-86
2023/05/05 03:49:10;;;;;;;11.65;7.38;;;;;;;13.51;100.00;151392.28;5019635;28;20038;-85
2023/05/05 03:51:38;;;;;;;9.70;6.57;;;;;;;13.65;100.00;151427.38;5000586;28;20077;-85
2023/05/05 03:54:04;;;;;;;12.27;7.00;;;;;;;13.74;100.00;151449.91;5015030;28;20450;-85
2023/05/05 03:56:29;;;;;;;9.60;7.18;;;;;;;13.48;100.00;151383.53;5018823;28;20045;-85
2023/05/05 03:58:55;;;;;;;12.07;7.05;;;;;;;13.60;100.00;151414.81;5018484;28;20080;-85
2023/05/05 04:01:20;;;;;;;9.05;6.72;;;;;;;13.39;100.00;151363.47;5015014;28;20087;-86
2023/05/05 04:03:46;;;;;;;13.32;7.68;;;;;;;13.54;100.00;151399.81;5015134;28;20034;-85
2023/05/05 04:06:12;;;;;;;11.80;7.43;;;;;;;13.49;100.00;151387.25;5017843;28;20033;-86
2023/05/05 04:08:37;;;;;;;16.63;7.03;;;;;;;13.71;100.00;151441.13;5015793;28;20184;-84
2023/05/05 04:11:04;;;;;;;13.63;7.50;;;;;;;13.58;100.00;151409.84;5016863;28;20038;-84
2023/05/05 04:13:32;;;;;;;13.50;8.07;;;;;;;13.43;100.00;151372.25;5014855;28;20069;-86
2023/05/05 04:15:58;;;;;;;12.52;7.40;;;;;;;13.24;100.00;151324.66;5015874;28;20428;-85
2023/05/05 04:18:25;;;;;;;9.80;7.50;;;;;;;13.12;100.00;151294.63;5015933;28;20124;-84
2023/05/05 04:20:50;;;;;;;13.38;7.68;;;;;;;13.00;100.00;151264.50;5015635;28;20058;-85
2023/05/05 04:23:16;;;;;;;13.85;7.38;;;;;;;13.19;100.00;151312.16;5017418;28;20395;-85
2023/05/05 04:25:43;;;;;;;18.70;7.70;;;;;;;13.18;100.00;151310.91;5016969;28;20080;-84
2023/05/05 04:28:10;;;;;;;19.77;7.78;;;;;;;13.08;100.00;151284.56;5015828;28;20510;-83
2023/05/05 04:30:36;;;;;;;14.68;6.93;;;;;;;13.02;100.00;151269.53;5016372;28;20032;-85
2023/05/05 04:33:02;;;;;;;12.20;7.35;;;;;;;13.18;100.00;151309.66;5018773;28;20105;-86
2023/05/05 04:35:28;;;;;;;13.05;7.07;;;;;;;13.47;100.00;151382.25;5021088;28;20100;-84
2023/05/05 04:37:54;;;;;;;11.43;6.50;;;;;;;13.57;100.00;151407.31;4999401;28;20045;-85
2023/05/05 04:40:21;;;;;;;10.45;6.20;;;;;;;13.75;100.00;151452.44;5015978;28;20562;-84
2023/05/05 04:42:47;;;;;;;12.10;6.15;;;;;;;13.97;100.00;151507.53;5016610;28;20037;-85
2023/05/05 04:45:13;;;;;;;10.52;6.10;;;;;;;14.13;100.00;151545.09;5016094;28;20033;-85
2023/05/05 04:47:39;;;;;;;13.88;5.82;;;;;;;14.20;100.00;151563.91;5017772;28;20037;-85
2023/05/05 04:50:07;;;;;;;12.52;7.25;;;;;;;13.95;100.00;151502.50;5016038;28;20063;-87
2023/05/05 04:52:32;;;;;;;8.73;6.38;;;;;;;13.66;100.00;151429.84;5017347;28;20038;-85
2023/05/05 04:54:58;;;;;;;8.63;6.88;;;;;;;13.46;100.00;151379.75;5001172;28;20063;-86
2023/05/05 04:57:24;;;;;;;9.10;6.82;;;;;;;13.84;100.00;151474.97;5000688;28;20045;-83
2023/05/05 04:59:51;;;;;;;11.65;7.20;;;;;;;13.91;100.00;151492.50;5017493;28;20118;-85
2023/05/05 05:02:17;;;;;;;9.82;6.57;;;;;;;14.16;100.00;151553.88;5003683;28;20049;-87
2023/05/05 05:04:42;;;;;;;8.63;5.95;;;;;;;14.26;100.00;151578.94;5020496;28;20483;-87
2023/05/05 05:07:13;;;;;;;12.13;7.07;;;;;;;14.12;100.00;151542.63;5025805;28;20053;-90
2023/05/05 05:09:45;;;;;;;13.35;7.32;;;;;;;14.04;100.00;151523.81;5023265;28;20090;-91
2023/05/05 05:12:15;;;;;;;10.68;6.30;;;;;;;14.07;100.00;151531.31;5027154;28;20045;-88
2023/05/05 05:14:41;;;;;;;9.07;6.78;;;;;;;14.19;100.00;151561.38;5008585;28;20034;-91
2023/05/05 05:17:07;;;;;;;10.80;7.47;;;;;;;14.38;100.00;151607.81;5012096;28;20050;-88
2023/05/05 05:19:39;;;;;;;11.85;6.65;;;;;;;14.43;100.00;151620.31;5023279;28;20038;-90
2023/05/05 05:22:19;;;;;;;15.40;6.40;;;;;;;14.66;100.00;151677.97;5028008;28;20085;-89
2023/05/05 05:24:44;;;;;;;9.95;6.13;;;;;;;15.26;100.00;151825.91;5023519;28;20056;-86
2023/05/05 05:27:10;;;;;;;11.63;6.82;;;;;;;15.48;100.00;151881.09;4997569;28;20036;-88
2023/05/05 05:29:39;;;;;;;10.98;7.20;;;;;;;15.47;100.00;151878.59;5009858;28;20030;-90
2023/05/05 05:32:07;;;;;;;15.13;7.47;;;;;;;15.96;100.00;152000.28;4999093;28;20073;-87
2023/05/05 05:34:34;;;;;;;12.68;6.93;;;;;;;16.47;100.00;152127.03;5016638;28;20045;-87
2023/05/05 05:37:00;;;;;;;16.85;6.95;;;;;;;16.61;100.00;152160.91;5015842;28;20125;-88
2023/05/05 05:39:27;;;;;;;13.77;6.97;;;;;;;16.86;100.00;152224.97;5001439;28;20104;-88
2023/05/05 05:41:54;;;;;;;16.52;7.50;;;;;;;17.23;100.00;152315.34;5017370;28;20098;-86
2023/05/05 05:44:19;;;;;;;9.73;6.55;;;;;;;17.39;100.00;152356.78;5017178;28;20064;-87
2023/05/05 05:46:45;;;;;;;13.30;6.82;;;;;;;17.69;100.00;152430.91;5000815;28;20403;-88
2023/05/05 05:49:12;;;;;;;17.52;7.40;;;;;;;17.83;100.00;152464.84;5018884;28;20071;-88
2023/05/05 05:51:38;;;;;;;15.68;6.85;;;;;;;19.16;98.79;152795.38;5016257;28;20030;-87
2023/05/05 05:54:03;;;;;;;13.40;6.32;;;;;;;20.22;89.30;153059.50;5002194;28;20419;-87
2023/05/05 05:56:30;;;;;;;13.07;6.30;;;;;;;21.02;81.92;153260.88;5008297;28;20040;-88
2023/05/05 05:58:55;;;;;;;16.02;6.38;;;;;;;21.39;78.02;153352.81;5033160;28;20022;-86
2023/05/05 06:01:22;;;;;;;14.40;5.78;;;;;;;22.22;70.47;153558.13;5036807;28;20033;-85
2023/05/05 06:03:48;;;;;;;10.90;5.68;;;;;;;23.83;62.93;153960.25;5037136;28;20026;-86
2023/05/05 06:06:14;;;;;;;12.10;5.68;;;;;;;23.28;64.85;153822.75;5036957;28;20037;-86
2023/05/05 06:08:43;;;;;;;11.20;6.22;;;;;;;23.66;61.12;153918.63;5035690;28;20026;-89
2023/05/05 06:11:08;;;;;;;12.70;5.85;;;;;;;22.99;64.36;153752.22;5019306;28;20065;-86
2023/05/05 06:13:34;;;;;;;9.93;5.38;;;;;;;23.84;61.78;153964.00;5018668;28;20045;-88
2023/05/05 06:16:00;;;;;;;11.30;5.78;;;;;;;23.52;61.67;153883.34;5018925;28;20049;-87
2023/05/05 06:18:26;;;;;;;12.38;6.15;;;;;;;22.79;65.58;153701.78;5022135;28;20073;-89
2023/05/05 06:20:52;;;;;;;10.98;5.68;;;;;;;24.84;56.59;154212.56;5021366;28;20060;-89
2023/05/05 06:23:19;;;;;;;9.52;5.40;;;;;;;24.52;55.72;154134.31;5019230;28;20034;-87
2023/05/05 06:25:50;;;;;;;11.65;5.30;;;;;;;25.80;51.86;154452.38;5019698;28;20103;-87
2023/05/05 06:28:17;;;;;;;14.25;5.55;;;;;;;25.92;50.12;154483.94;5017898;28;20499;-87
2023/05/05 06:30:43;;;;;;;10.88;5.45;;;;;;;25.64;50.09;154413.25;5018839;28;20084;-90
2023/05/05 06:33:11;;;;;;;7.60;5.10;;;;;;;25.48;51.81;154374.09;5019311;28;20038;-89
2023/05/05 06:35:38;;;;;;;8.82;4.90;;;;;;;26.53;49.11;154636.78;5000232;28;20042;-88
2023/05/05 06:38:04;;;;;;;6.40;4.45;;;;;;;27.31;46.34;154830.09;5004953;28;20048;-89
2023/05/05 06:40:30;;;;;;;8.05;4.72;;;;;;;27.73;44.68;154936.28;5003928;28;20035;-90
2023/05/05 06:42:56;;;;;;;8.57;4.93;;;;;;;26.19;48.46;154552.16;4993344;28;20045;-89
2023/05/05 06:45:27;;;;;;;8.60;5.50;;;;;;;23.59;59.40;153901.00;5008096;28;20072;-92
2023/05/05 06:47:52;;;;;;;7.78;5.57;;;;;;;24.10;58.61;154028.31;4995092;28;20464;-91
2023/05/05 06:50:18;;;;;;;9.35;5.18;;;;;;;25.36;54.69;154343.78;4997725;28;20038;-90
2023/05/05 06:52:45;;;;;;;8.05;5.10;;;;;;;25.44;54.18;154364.00;5006945;28;20038;-89
2023/05/05 06:55:10;;;;;;;7.43;5.07;;;;;;;26.02;51.37;154507.91;5000986;28;20027;-90
2023/05/05 06:57:36;;;;;;;11.25;5.38;;;;;;;26.75;48.56;154689.84;4982736;28;20045;-88
2023/05/05 07:00:04;;;;;;;6.63;4.90;;;;;;;27.29;46.66;154826.28;4997899;28;20062;-89
2023/05/05 07:02:30;;;;;;;8.27;4.53;;;;;;;26.66;47.71;154668.34;4984140;28;20149;-90
2023/05/05 07:04:56;;;;;;;6.43;4.78;;;;;;;26.38;50.44;154597.63;4999500;28;20056;-87
2023/05/05 07:07:22;;;;;;;8.32;4.72;;;;;;;26.37;50.33;154595.09;5008487;28;20023;-90
2023/05/05 07:09:48;;;;;;;8.88;4.95;;;;;;;27.39;47.42;154850.28;5004591;28;20042;-90
2023/05/05 07:12:14;;;;;;;8.90;5.47;;;;;;;26.83;48.26;154711.34;4994279;28;20042;-89
2023/05/05 07:14:40;;;;;;;9.32;5.68;;;;;;;26.71;50.02;154681.00;4995345;28;20508;-87
2023/05/05 07:17:05;;;;;;;10.15;5.55;;;;;;;26.57;49.75;154645.63;5006726;28;20440;-88
2023/05/05 07:19:32;;;;;;;8.38;5.03;;;;;;;27.68;47.04;154923.59;5010724;28;20049;-90
2023/05/05 07:22:21;;;;;;;9.35;5.57;;;;;;;26.82;48.40;154707.53;5008746;28;20050;-89
2023/05/05 07:24:47;;;;;;;7.95;5.00;;;;;;;27.72;47.35;154935.00;5005285;28;20079;-89
2023/05/05 07:27:12;;;;;;;11.15;5.05;;;;;;;27.31;48.09;154830.09;4999860;28;20423;-90
2023/05/05 07:32:04;;;;;;;10.55;5.32;;;;;;;27.11;49.53;154782.03;5004282;28;20046;-91
2023/05/05 07:34:33;;;;;;;8.05;5.30;;;;;;;27.00;50.78;154753.03;5005382;28;20039;-89
2023/05/05 07:36:58;;;;;;;6.20;5.40;;;;;;;26.58;50.54;154648.16;5000980;28;20039;-92
2023/05/05 07:39:24;;;;;;;10.35;4.78;;;;;;;25.71;52.88;154430.94;4982373;28;21138;-92
2023/05/05 07:41:50;;;;;;;9.18;5.10;;;;;;;26.22;52.29;154557.25;5011326;28;20068;-88
2023/05/05 07:44:18;;;;;;;11.07;7.07;;;;;;;25.88;51.84;154472.59;4993538;28;20046;-90
2023/05/05 07:46:45;;;;;;;7.90;5.75;;;;;;;26.99;50.98;154750.47;5003675;28;20042;-91
2023/05/05 07:49:13;;;;;;;10.75;5.47;;;;;;;27.41;48.54;154855.34;4995931;28;20047;-92
2023/05/05 07:51:39;;;;;;;11.80;6.55;;;;;;;26.54;50.69;154638.03;4979449;28;20041;-92
2023/05/05 07:54:05;;;;;;;11.18;6.00;;;;;;;27.43;47.23;154861.66;4945657;28;20046;-92
2023/05/05 07:56:30;;;;;;;9.18;6.55;;;;;;;26.94;48.78;154737.88;4988762;28;20042;-91
2023/05/05 07:58:56;;;;;;;8.32;5.55;;;;;;;28.69;43.99;155176.53;5002247;28;20053;-91
2023/05/05 08:01:22;;;;;;;9.70;6.10;;;;;;;27.96;43.92;154994.41;4994585;28;20049;-90
2023/05/05 08:03:55;;;;;;;7.47;6.40;;;;;;;26.96;46.57;154744.16;4995462;28;20043;-91
2023/05/05 08:06:24;;;;;;;9.98;7.00;;;;;;;26.70;48.30;154678.44;5011378;28;20045;-92
2023/05/05 08:08:53;;;;;;;9.95;7.95;;;;;;;26.87;49.43;154721.44;4987588;28;20042;-91
2023/05/05 08:11:20;;;;;;;11.18;7.75;;;;;;;27.05;48.85;154766.91;5002209;28;20049;-90
2023/05/05 08:13:46;;;;;;;16.05;7.28;;;;;;;27.68;47.90;154923.59;5006441;28;20515;-91
2023/05/05 08:16:12;;;;;;;12.80;8.07;;;;;;;27.39;49.41;154850.28;5005635;28;20083;-90
2023/05/05 08:18:38;;;;;;;13.55;7.57;;;;;;;28.08;47.55;155023.50;4995181;28;20510;-89
2023/05/05 08:21:05;;;;;;;11.48;8.38;;;;;;;27.20;49.29;154804.81;5000323;28;20050;-89
2023/05/05 08:23:33;;;;;;;9.85;7.25;;;;;;;28.04;47.99;155013.38;4997785;28;20594;-91
2023/05/05 08:25:59;;;;;;;9.00;7.35;;;;;;;28.14;47.20;155039.91;4992290;28;20600;-88
2023/05/05 08:28:24;;;;;;;10.32;8.10;;;;;;;28.15;45.76;155042.47;4990203;28;20644;-89
2023/05/05 08:30:50;;;;;;;11.38;8.10;;;;;;;28.51;44.91;155132.22;4992548;28;20026;-90
2023/05/05 08:33:15;;;;;;;11.10;8.35;;;;;;;28.30;45.58;155077.88;5009251;28;20364;-90
2023/05/05 08:35:41;;;;;;;10.30;8.00;;;;;;;28.58;44.17;155148.66;5000554;28;20517;-87
2023/05/05 08:38:07;;;;;;;11.48;8.07;;;;;;;28.61;43.91;155156.22;4996792;28;20039;-89
2023/05/05 08:40:33;;;;;;;11.63;7.57;;;;;;;28.73;43.25;155186.66;4997398;28;20038;-89
2023/05/05 08:43:03;;;;;;;8.25;6.97;;;;;;;29.52;41.84;155385.25;4994375;28;20038;-89
2023/05/05 08:45:29;;;;;;;9.13;7.97;;;;;;;29.95;41.75;155491.56;4993994;28;20038;-89
2023/05/05 08:47:56;;;;;;;14.15;10.93;;;;;;;29.96;41.67;155495.31;4994522;28;20034;-88
2023/05/05 08:50:26;;;;;;;15.43;10.63;;;;;;;29.86;41.21;155468.78;5013514;28;20113;-89
2023/05/05 08:53:10;;;;;;;8.73;6.33;;;;;;;30.14;41.80;155539.63;5013705;28;20033;-87
2023/05/05 08:55:44;;;;;;;15.95;11.05;;;;;;;28.54;44.61;155138.53;5021407;28;20124;-90
2023/05/05 08:58:10;;;;;;;15.65;10.88;;;;;;;27.38;49.18;154847.72;5016712;28;20045;-89
2023/05/05 09:00:41;;;;;;;12.88;11.10;;;;;;;27.07;48.87;154771.97;5007973;28;20799;-87
2023/05/05 09:03:08;;;;;;;13.93;10.82;;;;;;;27.63;46.94;154911.00;4994162;28;20057;-92
2023/05/05 09:05:35;;;;;;;12.10;10.20;;;;;;;28.00;46.24;155004.53;4997139;28;20026;-88
2023/05/05 09:08:01;;;;;;;12.52;8.75;;;;;;;28.34;44.17;155088.00;5016042;28;20049;-85
2023/05/05 09:10:28;;;;;;;12.52;8.48;;;;;;;28.71;42.10;155181.56;5015099;28;20042;-83
2023/05/05 09:12:53;;;;;;;8.95;7.63;;;;;;;28.68;43.62;155175.25;4997516;28;20491;-88
2023/05/05 09:15:19;;;;;;;14.75;9.40;;;;;;;28.90;43.45;155229.59;5012683;28;20042;-85
2023/05/05 09:17:45;;;;;;;12.15;8.85;;;;;;;29.57;41.49;155396.59;5017024;28;20037;-87
2023/05/05 09:20:12;;;;;;;15.38;8.93;;;;;;;29.46;42.38;155368.81;5018960;28;20093;-85
2023/05/05 09:22:43;;;;;;;12.77;9.85;;;;;;;29.18;42.67;155300.44;5031044;28;20211;-86
2023/05/05 09:25:11;;;;;;;14.02;11.95;;;;;;;27.47;46.48;154871.84;5002800;28;20038;-86
2023/05/05 09:27:42;;;;;;;8.55;7.18;;;;;;;28.20;46.68;155053.88;5005826;28;20053;-89
2023/05/05 09:30:09;;;;;;;13.02;9.45;;;;;;;29.56;42.83;155395.38;5009515;28;20078;-85
2023/05/05 09:32:52;;;;;;;9.57;7.72;;;;;;;29.08;44.69;155275.16;5011961;28;20040;-87
2023/05/05 09:35:19;;;;;;;13.95;10.70;;;;;;;29.11;41.73;155282.75;5011444;28;20046;-88
2023/05/05 09:37:44;;;;;;;10.40;8.23;;;;;;;30.06;39.58;155519.41;5003525;28;20084;-87
2023/05/05 09:40:12;;;;;;;14.10;9.68;;;;;;;29.48;41.09;155373.84;4995074;28;20029;-90
2023/05/05 09:42:39;;;;;;;11.25;8.75;;;;;;;29.76;40.97;155444.72;5004561;28;20034;-87
2023/05/05 09:45:16;;;;;;;9.98;7.93;;;;;;;29.97;39.82;155497.88;5000960;28;20396;-88
2023/05/05 09:47:42;;;;;;;13.35;8.13;;;;;;;29.80;37.59;155454.78;5017330;28;20069;-90
2023/05/05 09:50:13;;;;;;;13.15;7.13;;;;;;;29.69;37.98;155428.25;5016308;28;20037;-89
2023/05/05 09:52:38;;;;;;;12.57;6.30;;;;;;;29.41;36.45;155357.41;5014576;28;20029;-87
2023/05/05 09:55:04;;;;;;;6.25;5.07;;;;;;;29.71;36.37;155432.03;5015723;28;20125;-87
2023/05/05 09:57:33;;;;;;;7.63;5.70;;;;;;;29.36;34.76;155343.50;5012958;28;20452;-86
2023/05/05 10:00:00;;;;;;;10.70;6.82;;;;;;;29.19;36.15;155301.72;5015475;28;20434;-86
2023/05/05 10:02:30;;;;;;;9.05;6.32;;;;;;;29.99;36.94;155501.69;5014016;28;20038;-88
2023/05/05 10:05:22;;;;;;;8.95;5.88;;;;;;;29.73;35.27;155438.34;5015930;28;20098;-87
2023/05/05 10:07:48;;;;;;;8.77;6.53;;;;;;;29.16;36.45;155295.41;5014088;28;20045;-88
2023/05/05 10:10:15;;;;;;;9.10;6.88;;;;;;;28.66;36.30;155168.94;5022085;28;20030;-90
2023/05/05 10:12:45;;;;;;;7.80;6.20;;;;;;;28.90;35.74;155229.59;5006933;28;20069;-89
2023/05/05 10:15:11;;;;;;;17.63;6.00;;;;;;;28.88;35.80;155224.56;4971603;28;20129;-87
2023/05/05 10:17:46;;;;;;;11.40;5.93;;;;;;;29.42;35.30;155358.69;4999457;28;20030;-88
2023/05/05 10:20:16;;;;;;;6.63;5.80;;;;;;;29.37;35.96;155346.00;4994276;28;20035;-89
2023/05/05 10:22:51;;;;;;;5.28;4.20;;;;;;;28.86;33.66;155219.53;4989648;28;20046;-86
2023/05/05 10:25:25;;;;;;;9.73;5.30;;;;;;;28.96;34.32;155243.53;4995481;28;20045;-86
2023/05/05 10:27:57;;;;;;;18.38;5.03;;;;;;;28.77;36.10;155196.72;4939898;28;21322;-85
2023/05/05 10:30:30;;;;;;;6.47;4.93;;;;;;;28.59;36.68;155152.47;4956397;28;20080;-86
2023/05/05 10:33:08;;;;;;;11.65;5.93;;;;;;;28.81;35.25;155205.59;4999248;28;20046;-86
2023/05/05 10:35:38;;;;;;;10.05;5.45;;;;;;;29.05;35.75;155267.56;4993788;28;20044;-86
2023/05/05 10:38:07;;;;;;;6.13;5.22;;;;;;;29.63;36.18;155413.03;4993506;28;20041;-87
2023/05/05 10:40:33;;;;;;;7.70;5.88;;;;;;;29.19;35.76;155301.72;4997131;28;20026;-88
2023/05/05 10:42:59;;;;;;;10.68;6.55;;;;;;;29.13;35.32;155286.53;4999685;28;20554;-90
2023/05/05 10:45:24;;;;;;;7.10;5.30;;;;;;;29.99;33.54;155501.69;4994088;28;20026;-87
2023/05/05 10:47:54;;;;;;;8.02;6.50;;;;;;;30.40;32.36;155605.47;4997310;28;20048;-88
2023/05/05 10:50:29;;;;;;;7.63;5.22;;;;;;;30.34;32.51;155588.97;4996318;28;20161;-89
2023/05/05 10:53:20;;;;;;;8.80;5.57;;;;;;;29.51;33.52;155382.69;5003481;28;20040;-88
2023/05/05 10:56:31;;;;;;;7.20;5.75;;;;;;;29.57;33.15;155397.88;4986164;28;20137;-89
2023/05/05 10:58:57;;;;;;;10.73;6.00;;;;;;;29.00;34.52;155254.91;4997845;28;20460;-84
2023/05/05 11:01:34;;;;;;;8.02;6.32;;;;;;;28.64;34.78;155163.81;5007291;28;20042;-87
2023/05/05 11:04:22;;;;;;;11.18;6.97;;;;;;;28.08;35.58;155024.75;5008281;28;20046;-88
2023/05/05 11:07:21;;;;;;;15.52;8.05;;;;;;;28.01;38.40;155007.00;5005944;28;20128;-86
2023/05/05 11:10:04;;;;;;;12.18;6.35;;;;;;;28.23;35.68;155062.72;5007149;28;20073;-85
2023/05/05 11:12:31;;;;;;;9.77;5.72;;;;;;;28.62;34.63;155158.78;4993115;28;20054;-82
2023/05/05 11:15:36;;;;;;;8.40;5.95;;;;;;;28.55;33.99;155141.06;4993736;28;20041;-86
2023/05/05 11:18:04;;;;;;;6.35;5.22;;;;;;;28.19;35.16;155052.59;4990731;28;20088;-84
2023/05/05 11:20:35;;;;;;;9.48;5.80;;;;;;;27.64;36.08;154913.53;4994918;28;20046;-89
2023/05/05 11:23:01;;;;;;;12.10;5.47;;;;;;;27.85;36.23;154965.31;4994631;28;20101;-86
2023/05/05 11:28:18;;;;;;;6.32;5.03;;;;;;;28.71;34.71;155181.56;4989044;28;20106;-86
2023/05/05 11:30:59;;;;;;;9.20;5.22;;;;;;;28.64;34.57;155165.09;5006118;28;20038;-90
2023/05/05 11:33:51;;;;;;;7.60;5.60;;;;;;;27.78;35.70;154948.88;5019386;28;20098;-88
2023/05/05 11:36:19;;;;;;;9.00;4.40;;;;;;;27.69;37.74;154926.16;5009395;28;20050;-90
2023/05/05 11:39:06;;;;;;;8.55;4.32;;;;;;;27.38;37.03;154847.72;4982916;28;20329;-89
2023/05/05 11:41:31;;;;;;;7.88;4.95;;;;;;;26.84;38.36;154713.88;5017849;28;20057;-90
2023/05/05 11:44:15;;;;;;;8.73;5.43;;;;;;;26.40;38.79;154602.66;5003297;28;20042;-89
2023/05/05 11:46:52;;;;;;;7.47;5.18;;;;;;;26.66;39.40;154668.34;5014340;28;20135;-86
2023/05/05 11:49:28;;;;;;;4.55;3.85;;;;;;;26.84;40.67;154713.88;5009412;28;20054;-87